Extreme weather reports worldwide

Rain

Station
 
Location
 
Name
 
Wind
Knots
Gust
Knots
Vis
SM
Temp/Dew
C
Baro
inHg
METAR
 
TRE EGPU Balemartine, GB Tiree Airport 33 46 2.17 10/9 29.32 EGPU 211820Z AUTO 02033G46KT 3500 -RA BKN008/// BKN017/// 10/09 Q0993
RWL KRWL Rawlins, US Rawlins Municipal Airport/Harvey Field 24 40 10 16/-2 29.93 KRWL 211753Z AUTO 24024G40KT 10SM -RA CLR 16/M02 A2993 RMK AO2 PK WND 26041/1741 RAE11B33 SLP064 P0000 60000 T01611022 10161 20078 58007
DUT PADU Unalaska, US Unalaska Airport 26 39 5 7/4 29.94 PADU 211805Z 09026G39KT 5SM RA BR OVC022 07/04 A2994 RMK AO2 PK WND 10039/1759 OBS PK WND 08052/1758 P0002
DHR EHKD Den Helder, NL De Kooy Airport 27 38 2.3 15/13 29.44 EHKD 211839Z AUTO 22027G38KT 190V250 3700 DZRA FEW007 SCT016 BKN020 15/13 Q0997 GRN TEMPO 3000 SHRA FEW006 SCT016CB
AKB PAAK Atka, US Atka Airport 23 38 1.25 6/4 29.71 PAAK 211815Z AUTO 07023G38KT 1 1/4SM -RA BR BKN010 OVC015 06/04 A2971 RMK AO2 PK WND 06038/1807 CIG 008V014 P0000

Station
 
Location
 
Name
 
Wind
Knots
Gust
Knots
Vis
SM
Temp/Dew
C
Baro
inHg
METAR
 
BEB EGPL Balivanich, GB Benbecula Airport 25 35 6.21 8/6 29.47 EGPL 211820Z AUTO 02025G35KT 9999 -RA NCD 08/06 Q0998
LDY EGAE Derry, GB City of Derry Airport 20 30 6.21 9/7 29.41 EGAE 211820Z 30020G30KT 9999 -RADZ FEW008 SCT014 BKN020 09/07 Q0996
YBC CYBC Baie-Comeau, CA Baie Comeau Airport 19 28 2.5 3/2 30.16 CYBC 211845Z AUTO 08019G28KT 2 1/2SM -RA BR FEW010 SCT021 BKN036 OVC046 03/02 A3016 RMK SLP217
ADK PADK Adak Island, US Adak Airport 21 27 4 6/6 29.63 PADK 211834Z AUTO 06021G27KT 4SM -RA BR BKN013 OVC019 06/06 A2963 RMK AO2 PK WND 06027/1828 P0000
YBG CYBG Bagotville, CA CFB Bagotville 21 27 2 3/2 29.95 CYBG 211841Z 10021G27KT 2SM -RA BR FEW018 OVC030 03/02 A2995 RMK SC2SC6 VIS VRB 1-3 SLP150
MWH KMWH Moses Lake, US Grant County International Airport 19 26 10 13/-1 29.99 KMWH 211752Z 35019G26KT 10SM -RA CLR 13/M02 A2999 RMK AO2 PK WND 34026/1744 RAB1657 SLP157 P0000 60000 T01331017 10133 20022 51012
MRK KMKY Marco Island, US Marco Island Executive Airport 16 26 10 23/21 29.98 KMKY 211756Z AUTO 09016G26KT 10SM -RA FEW039 BKN060 OVC085 24/21 A2998 RMK AO2 PK WND 09026/1749 RAB52 SLP151 P0000 60000 T02390211 10272 20233 50000 TSNO $
AYP SPHO Ayacucho, PE Coronel FAP Alfredo Mendivil Duarte Airport 14 25 5.59 19/6 30.30 SPHO 211843Z 08014G25KT 050V130 9000 -RA SCT040 BKN070 19/06 Q1026
CYR SUCA Colonia del Sacramento, UY Laguna de Los Patos International Airport 14 25 6.21 16/12 30.21 SUCA 211811Z 13014G25KT 9999 -RA FEW033 BKN080 16/12 Q1023
BHD EGAC Belfast, GB George Best Belfast City Airport 14 24 5.59 9/7 29.38 EGAC 211820Z AUTO 25014G24KT 9000 -RA SCT013/// BKN018/// OVC022/// 09/07 Q0995
EBJ EKEB Esbjerg, DK Esbjerg Airport 12 23 6.21 13/12 29.32 EKEB 211820Z AUTO 15012G23KT 9999 -RA BKN005/// 13/12 Q0993 RERA
BTV KBTV Burlington, US Burlington International Airport 13 21 10 17/12 30.08 KBTV 211754Z 17013G21KT 10SM -RA BKN085 BKN100 17/13 A3008 RMK AO2 RAB09 SLP185 P0000 60000 T01720128 10172 20094 58033
LNA KLNA West Palm Beach, US Palm Beach County Park Airport 11 21 5 23/22 29.99 KLNA 211835Z AUTO 12011G21KT 5SM -RA OVC010 24/22 A2999 RMK AO2 T02380221 PNO
ROC KROC Rochester, US Greater Rochester International Airport 10 20 5 18/17 30.08 KROC 211804Z 28010G20KT 5SM -RA BR FEW006 BKN013 OVC030 18/17 A3008 RMK AO2 P0000 T01830172
ISM KISM Orlando, US Kissimmee Gateway Airport 10 19 9 27/23 30.02 KISM 211821Z 09010G19KT 9SM -RA SCT029 BKN035 BKN042 27/23 A3002 RMK AO2 RAB15 PNO $
DKK KDKK Dunkirk, US Chautauqua County-Dunkirk Airport 11 18 3 15/14 30.15 KDKK 211817Z AUTO 25011G18KT 3SM -RA BR SCT008 OVC015 16/14 A3015 RMK AO2 RAB1754 P0000 T01560144
WLS NLWW Wallis Island, WF Hihifo Airport 8 18 3.11 27/25 29.85 NLWW 211830Z 14008G18KT 100V180 5000 RA SCT016 SCT050 OVC160 27/25 Q1011 TEMPO 2000 TSRA BKN011 SCT018CB
CFG MUCF Cienfuegos, CU Jaime Gonzalez Airport 7 18 3.73 27/23 MUCF 211751Z VRB07G18KT 6000 3000E TSRA SCT020CB BKN025 27/23 Q 101
KJES Jesup, US Jesup Wayne County Airport 10 17 2.5 23/21 30.15 KJES 211835Z AUTO 11010G17KT 2 1/2SM +TSRA SCT016 BKN022 OVC029 23/21 A3015 RMK AO2 VIS 1 1/2V4 LTG DSNT SE THRU SW
TVI KTVI Thomasville, US Thomasville Regional Airport 9 17 7 23/22 30.12 KTVI 211835Z AUTO 09009G17KT 7SM RA SCT012 BKN029 OVC065 23/22 A3012 RMK AO2 LTG DSNT E AND SE
KSDC Williamson/Sodus, US Williamson Sodus Airport 9 16 4 18/16 30.08 KSDC 211815Z AUTO 26009G16KT 240V300 4SM -RA SCT009 BKN016 OVC032 18/16 A3008 RMK AO2 P0003
BFD KBFD Bradford, US Bradford Regional Airport 7 16 10 20/13 30.16 KBFD 211843Z AUTO 23007G16KT 10SM -RA BKN026 OVC032 20/14 A3016 RMK AO2 RAB30 P0000 T02000139
BFI KBFI Seattle, US Boeing Field King County International Airport 7 16 10 9/4 30.15 KBFI 211820Z 04007G16KT 10SM -RA SCT010 BKN023 OVC033 09/04 A3015 RMK AO2 RAB19 P0000 T00940044 $
KFHB 6 16 1.25 23/22 30.10 KFHB 211835Z AUTO 18006G16KT 1 1/4SM +VCTSRA BR SCT012 BKN017 OVC033 23/22 A3010 RMK AO2 LTG DSNT W THRU NE P0053 T02350222
EHVL Vlieland, NL Vlieland Heliport 34 1.62 14/14 29.41 EHVL 211832Z AUTO 23034KT 2600 SHRA FEW005 BKN006 BKN008 FEW015CB 14/14 Q0996 YLO
EHDV 25 6.21 13/13 29.32 EHDV 211825Z AUTO 27025KT 240V320 9999 -RADZ SCT003/// BKN004/// BKN020/// 13/13 Q0993
KOI EGPA Orkney Islands, GB Kirkwall Airport 24 4.35 9/8 29.41 EGPA 211820Z AUTO 04024KT 7000 -RA BKN004/// OVC008/// 09/08 Q0996
GWT EDXW Westerland, DE Westerland Sylt Airport 22 3.73 13/12 29.35 EDXW 211820Z 20022KT 6000 RA FEW017 BKN024 OVC032 13/12 Q0994
WIC EGPC Wick, GB Wick Airport 22 3.73 10/10 29.35 EGPC 211820Z AUTO 04022KT 6000 -RA OVC005/// 10/10 Q0994
SYY EGPO Stornoway, GB Stornoway Airport 20 4.97 8/7 29.47 EGPO 211820Z AUTO 01020KT 8000 -RA FEW015/// SCT023/// BKN029/// 08/07 Q0998
RNN EKRN Rønne, DK Bornholm Airport 16 6.21 12/12 29.62 EKRN 211820Z AUTO 18016KT 9999 -SHRA FEW011/// OVC024/// 12/12 Q1003
KZO UAOO Kzyl-Orda, KZ Kzyl-Orda Southwest Airport 16 5.59 8/4 30.12 UAOO 211800Z 31008MPS 9000 -RA BKN046 08/04 Q1020 NOSIG RMK QFE753/1004
DZO SUDU Durazno, UY Santa Bernardina International Airport 16 6.21 20/10 30.21 SUDU 211830Z 09016KT 9999 -RA SCT016 BKN080 20/10 Q1023
MMX ESMS Malmö, SE Malmö Sturup Airport 15 3.11 12/11 29.56 ESMS 211820Z 17015KT 5000 -RA FEW003 OVC005 12/11 Q1001
AGH ESTA Ängelholm, SE Ängelholm-Helsingborg Airport 14 4.97 12/11 29.50 ESTA 211820Z AUTO 15014KT 8000 -RA FEW002/// OVC005/// 12/11 Q0999
K1HM 14 10 -1/-3 29.85 K1HM 211758Z AUTO 34014KT 10SM -SHRASN FEW006 BKN065 M02/M03 A2985 RMK AO2 RAB32E34RAB35E37 SLP145 T10181033 10002 21037 53011 $
SKS EKSP Vojens, DK Skrydstrup Air Base 13 1.86 13/12 29.38 EKSP 211843Z 18013KT 3000 -RA BR FEW005 BKN020 13/12 Q0995
JYV EFJY Jyväskylän Maalaiskunta, FI Jyvaskyla Airport 12 6.21 2/2 29.70 EFJY 211820Z AUTO 14012KT 9999 -RA OVC006 02/02 Q1006
WFK KFVE Frenchville, US Northern Aroostook Regional Airport 12 7 2/2 30.14 KFVE 211832Z AUTO 15012KT 7SM -RA BKN007 BKN010 OVC015 03/02 A3014 RMK AO2 CIG 004V009 P0003 T00280022
FOC ZSFZ Fuzhou, CN Fuzhou Changle International Airport 12 2.17 19/18 29.85 ZSFZ 211800Z 04006MPS 3500 -RA BR SCT004 BKN009 19/18 Q1011 NOSIG
YYY CYYY Mont-Joli, CA Mont Joli Airport 12 5 3/3 30.15 CYYY 211800Z 08012KT 5SM RA BR OVC033 03/03 A3015 RMK SC8 PRESFR SLP216
PUW KPUW Pullman/Moscow, US Pullman Moscow Regional Airport 12 10 6/3 29.97 KPUW 211838Z AUTO 27012KT 10SM -RA BKN021 BKN028 OVC033 07/03 A2997 RMK AO2 P0001 T00670033
FLL KFLL Fort Lauderdale, US Fort Lauderdale Hollywood International Airport 12 9 26/24 29.97 KFLL 211753Z 11012KT 9SM RA SCT025 SCT075 OVC110 26/24 A2997 RMK AO2 SLP147 6//// T02610244 10261 20233 58007 PNO $
CRK RPLC Angeles/Mabalacat, PH Diosdado Macapagal International Airport 12 3.11 24/24 29.65 RPLC 211800Z 18012KT 5000 -RA SCT020 OVC090 24/24 Q1004 NOSIG RMK A2965
ESTL Ljungbyhed, SE Ljungbyhed Airport 11 6.21 12/12 29.53 ESTL 211820Z AUTO 16011KT 9999 -RA FEW007/// SCT008/// BKN010/// 12/12 Q1000